createdAt,value
2022-10-31T00:01:25.521Z,100.00
2022-10-31T00:03:52.863Z,100.00
2022-10-31T00:06:19.810Z,100.00
2022-10-31T00:08:47.453Z,100.00
2022-10-31T00:11:14.474Z,100.00
2022-10-31T00:13:40.996Z,100.00
2022-10-31T00:16:17.504Z,100.00
2022-10-31T00:18:44.281Z,100.00
2022-10-31T00:21:10.812Z,100.00
2022-10-31T00:23:37.394Z,100.00
2022-10-31T00:26:05.197Z,100.00
2022-10-31T00:28:32.951Z,100.00
2022-10-31T00:31:04.401Z,100.00
2022-10-31T00:33:31.163Z,100.00
2022-10-31T00:35:57.871Z,100.00
2022-10-31T00:38:24.539Z,100.00
2022-10-31T00:40:51.126Z,100.00
2022-10-31T00:43:17.678Z,100.00
2022-10-31T00:45:44.705Z,100.00
2022-10-31T00:48:11.394Z,100.00
2022-10-31T00:50:38.570Z,100.00
2022-10-31T00:53:05.704Z,100.00
2022-10-31T00:55:32.594Z,100.00
2022-10-31T00:57:59.509Z,100.00
2022-10-31T01:00:26.627Z,100.00
2022-10-31T01:02:53.250Z,100.00
2022-10-31T01:05:20.041Z,100.00
2022-10-31T01:07:47.118Z,100.00
2022-10-31T01:10:13.812Z,100.00
2022-10-31T01:12:45.963Z,100.00
2022-10-31T01:15:17.135Z,100.00
2022-10-31T01:17:43.751Z,100.00
2022-10-31T01:20:13.656Z,100.00
2022-10-31T01:22:40.279Z,100.00
2022-10-31T01:25:08.474Z,100.00
2022-10-31T01:27:35.365Z,100.00
2022-10-31T01:30:01.920Z,100.00
2022-10-31T01:32:29.876Z,100.00
2022-10-31T01:34:56.568Z,100.00
2022-10-31T01:37:23.145Z,100.00
2022-10-31T01:39:50.121Z,100.00
2022-10-31T01:42:20.775Z,100.00
2022-10-31T01:44:58.824Z,100.00
2022-10-31T01:47:34.881Z,100.00
2022-10-31T01:50:06.700Z,100.00
2022-10-31T01:52:41.482Z,100.00
2022-10-31T01:55:19.224Z,100.00
2022-10-31T01:57:50.972Z,100.00
2022-10-31T02:00:18.109Z,100.00
2022-10-31T02:02:46.998Z,100.00
2022-10-31T02:05:22.312Z,100.00
2022-10-31T02:07:54.885Z,100.00
2022-10-31T02:10:28.234Z,100.00
2022-10-31T02:12:58.034Z,100.00
2022-10-31T02:15:25.290Z,100.00
2022-10-31T02:17:52.692Z,100.00
2022-10-31T02:20:23.536Z,100.00
2022-10-31T02:23:02.325Z,100.00
2022-10-31T02:25:51.078Z,100.00
2022-10-31T02:28:49.384Z,100.00
2022-10-31T02:31:38.877Z,100.00
2022-10-31T02:34:23.804Z,100.00
2022-10-31T02:36:56.232Z,100.00
2022-10-31T02:39:25.113Z,100.00
2022-10-31T02:42:11.863Z,100.00
2022-10-31T02:45:01.756Z,100.00
2022-10-31T02:47:30.592Z,100.00
2022-10-31T02:50:06.695Z,100.00
2022-10-31T02:52:35.477Z,100.00
2022-10-31T02:55:35.662Z,100.00
2022-10-31T02:58:11.984Z,100.00
2022-10-31T03:01:00.936Z,100.00
2022-10-31T03:03:41.876Z,100.00
2022-10-31T03:06:21.462Z,100.00
2022-10-31T03:09:16.163Z,100.00
2022-10-31T03:11:55.456Z,100.00
2022-10-31T03:14:31.191Z,100.00
2022-10-31T03:17:05.015Z,100.00
2022-10-31T03:19:37.036Z,100.00
2022-10-31T03:22:11.298Z,100.00
2022-10-31T03:24:40.351Z,100.00
2022-10-31T03:27:10.670Z,100.00
2022-10-31T03:29:40.336Z,100.00
2022-10-31T03:32:35.550Z,100.00
2022-10-31T03:35:08.173Z,100.00
2022-10-31T03:37:36.585Z,100.00
2022-10-31T03:40:06.026Z,100.00
2022-10-31T03:42:38.412Z,100.00
2022-10-31T03:45:15.489Z,100.00
2022-10-31T03:47:44.581Z,100.00
2022-10-31T03:50:15.096Z,100.00
2022-10-31T03:52:55.768Z,100.00
2022-10-31T03:55:32.867Z,100.00
2022-10-31T03:58:28.566Z,100.00
2022-10-31T04:00:58.461Z,100.00
2022-10-31T04:03:31.038Z,100.00
2022-10-31T04:06:06.495Z,100.00
2022-10-31T04:08:41.553Z,100.00
2022-10-31T04:11:12.690Z,100.00
2022-10-31T04:13:45.248Z,100.00
2022-10-31T04:16:17.531Z,100.00
2022-10-31T04:18:45.081Z,100.00
2022-10-31T04:21:11.685Z,100.00
2022-10-31T04:23:38.271Z,100.00
2022-10-31T04:26:14.212Z,100.00
2022-10-31T04:28:43.684Z,100.00
2022-10-31T04:31:13.046Z,100.00
2022-10-31T04:33:40.088Z,100.00
2022-10-31T04:36:07.313Z,100.00
2022-10-31T04:38:34.214Z,100.00
2022-10-31T04:41:03.640Z,100.00
2022-10-31T04:43:33.237Z,100.00
2022-10-31T04:46:01.125Z,100.00
2022-10-31T04:48:28.289Z,100.00
2022-10-31T04:51:02.526Z,100.00
2022-10-31T04:53:29.871Z,100.00
2022-10-31T04:56:16.688Z,100.00
2022-10-31T04:58:46.741Z,100.00
2022-10-31T05:01:13.815Z,100.00
2022-10-31T05:03:40.586Z,100.00
2022-10-31T05:06:07.998Z,100.00
2022-10-31T05:08:35.395Z,100.00
2022-10-31T05:11:05.651Z,100.00
2022-10-31T05:13:33.759Z,100.00
2022-10-31T05:16:12.488Z,100.00
2022-10-31T05:19:08.443Z,100.00
2022-10-31T05:21:53.588Z,100.00
2022-10-31T05:24:22.685Z,100.00
2022-10-31T05:26:50.210Z,100.00
2022-10-31T05:29:17.620Z,100.00
2022-10-31T05:31:44.215Z,100.00
2022-10-31T05:34:23.794Z,100.00
2022-10-31T05:37:13.971Z,100.00
2022-10-31T05:39:41.995Z,100.00
2022-10-31T05:42:14.319Z,100.00
2022-10-31T05:44:41.819Z,100.00
2022-10-31T05:47:31.308Z,100.00
2022-10-31T05:50:33.491Z,100.00
2022-10-31T05:53:08.921Z,100.00
2022-10-31T05:55:37.729Z,100.00
2022-10-31T05:58:11.011Z,100.00
2022-10-31T06:00:39.769Z,100.00
2022-10-31T06:03:10.609Z,100.00
2022-10-31T06:05:50.839Z,100.00
2022-10-31T06:08:21.438Z,100.00
2022-10-31T06:10:49.169Z,100.00
2022-10-31T06:13:21.098Z,100.00
2022-10-31T06:16:00.106Z,100.00
2022-10-31T06:18:34.115Z,100.00
2022-10-31T06:21:01.053Z,100.00
2022-10-31T06:23:28.695Z,100.00
2022-10-31T06:26:15.176Z,100.00
2022-10-31T06:28:41.929Z,100.00
2022-10-31T06:31:26.879Z,100.00
2022-10-31T06:33:53.475Z,100.00
2022-10-31T06:36:20.154Z,100.00
2022-10-31T06:38:47.371Z,100.00
2022-10-31T06:41:17.205Z,100.00
2022-10-31T06:43:48.240Z,100.00
2022-10-31T06:46:43.522Z,100.00
2022-10-31T06:49:28.643Z,100.00
2022-10-31T06:51:59.598Z,100.00
2022-10-31T06:54:26.596Z,100.00
2022-10-31T06:56:54.253Z,100.00
2022-10-31T06:59:21.566Z,100.00
2022-10-31T07:02:11.686Z,100.00
2022-10-31T07:04:39.946Z,100.00
2022-10-31T07:07:07.258Z,100.00
2022-10-31T07:09:35.810Z,100.00
2022-10-31T07:12:04.302Z,100.00
2022-10-31T07:14:33.073Z,100.00
2022-10-31T07:17:00.773Z,100.00
2022-10-31T07:19:33.508Z,100.00
2022-10-31T07:22:00.185Z,100.00
2022-10-31T07:24:28.886Z,100.00
2022-10-31T07:27:15.348Z,100.00
2022-10-31T07:29:43.454Z,100.00
2022-10-31T07:32:10.043Z,100.00
2022-10-31T07:34:44.940Z,100.00
2022-10-31T07:37:22.519Z,100.00
2022-10-31T07:39:49.056Z,100.00
2022-10-31T07:42:16.280Z,100.00
2022-10-31T07:44:45.239Z,100.00
2022-10-31T07:47:30.181Z,100.00
2022-10-31T07:50:18.504Z,100.00
2022-10-31T07:53:12.312Z,100.00
2022-10-31T07:55:39.662Z,100.00
2022-10-31T07:58:10.640Z,100.00
2022-10-31T08:00:44.968Z,100.00
2022-10-31T08:03:17.292Z,100.00
2022-10-31T08:06:02.724Z,100.00
2022-10-31T08:08:32.295Z,100.00
2022-10-31T08:11:02.134Z,100.00
2022-10-31T08:13:30.308Z,100.00
2022-10-31T08:16:04.245Z,100.00
2022-10-31T08:18:32.844Z,100.00
2022-10-31T08:20:59.798Z,100.00
2022-10-31T08:23:26.346Z,100.00
2022-10-31T08:25:55.895Z,100.00
2022-10-31T08:28:23.530Z,100.00
2022-10-31T08:30:51.761Z,100.00
2022-10-31T08:33:38.543Z,100.00
2022-10-31T08:36:23.852Z,100.00
2022-10-31T08:39:01.481Z,100.00
2022-10-31T08:41:30.501Z,100.00
2022-10-31T08:43:58.695Z,100.00
2022-10-31T08:46:25.437Z,100.00
2022-10-31T08:48:52.731Z,100.00
2022-10-31T08:51:21.861Z,100.00
2022-10-31T08:53:53.189Z,100.00
2022-10-31T08:56:39.811Z,100.00
2022-10-31T08:59:24.112Z,98.22
2022-10-31T09:02:23.275Z,97.20
2022-10-31T09:04:52.851Z,98.07
2022-10-31T09:07:20.909Z,97.17
2022-10-31T09:09:48.075Z,98.08
2022-10-31T09:12:14.703Z,96.25
2022-10-31T09:14:56.256Z,93.23
2022-10-31T09:17:31.474Z,94.96
2022-10-31T09:20:16.835Z,91.81
2022-10-31T09:22:43.351Z,89.48
2022-10-31T09:25:10.212Z,91.59
2022-10-31T09:27:38.251Z,92.69
2022-10-31T09:30:07.414Z,90.84
2022-10-31T09:32:34.540Z,90.69
2022-10-31T09:35:01.300Z,92.43
2022-10-31T09:37:28.251Z,89.05
2022-10-31T09:39:54.878Z,87.73
2022-10-31T09:42:53.766Z,89.01
2022-10-31T09:45:27.504Z,86.20
2022-10-31T09:48:15.954Z,85.03
2022-10-31T09:51:16.062Z,84.50
2022-10-31T09:54:31.127Z,80.71
2022-10-31T09:57:01.143Z,79.56
2022-10-31T09:59:34.478Z,79.00
2022-10-31T10:02:14.689Z,77.88
2022-10-31T10:04:52.158Z,78.09
2022-10-31T10:08:22.335Z,77.87
2022-10-31T10:11:25.942Z,77.24
2022-10-31T10:14:19.382Z,76.68
2022-10-31T10:17:07.149Z,76.49
2022-10-31T10:20:09.276Z,75.08
2022-10-31T10:23:24.037Z,74.07
2022-10-31T10:26:06.092Z,71.76
2022-10-31T10:28:39.672Z,72.51
2022-10-31T10:31:15.513Z,71.67
2022-10-31T10:33:56.953Z,70.92
2022-10-31T10:39:47.928Z,71.48
2022-10-31T10:42:35.121Z,73.67
2022-10-31T10:45:33.470Z,70.58
2022-10-31T10:48:10.727Z,69.21
2022-10-31T10:50:42.995Z,69.31
2022-10-31T10:53:22.195Z,68.93
2022-10-31T10:55:58.354Z,68.10
2022-10-31T10:58:24.977Z,67.07
2022-10-31T11:00:54.372Z,67.02
2022-10-31T11:03:20.962Z,69.31
2022-10-31T11:05:53.267Z,69.32
2022-10-31T11:08:36.770Z,67.95
2022-10-31T11:11:18.318Z,65.68
2022-10-31T11:13:48.209Z,64.47
2022-10-31T11:16:28.914Z,64.01
2022-10-31T11:19:08.775Z,64.72
2022-10-31T11:21:35.720Z,65.50
2022-10-31T11:24:23.121Z,63.42
2022-10-31T11:26:51.749Z,65.88
2022-10-31T11:29:25.701Z,66.33
2022-10-31T11:31:57.744Z,67.43
2022-10-31T11:34:30.932Z,65.70
2022-10-31T11:37:10.393Z,65.46
2022-10-31T11:39:43.412Z,70.00
2022-10-31T11:42:09.976Z,66.36
2022-10-31T11:44:36.921Z,66.22
2022-10-31T11:47:12.953Z,66.58
2022-10-31T11:49:42.078Z,68.46
2022-10-31T11:52:16.112Z,67.18
2022-10-31T11:54:45.999Z,68.27
2022-10-31T11:57:45.350Z,67.10
2022-10-31T12:03:13.188Z,70.63
2022-10-31T12:05:42.342Z,71.29
2022-10-31T12:08:13.017Z,70.47
2022-10-31T12:11:12.258Z,73.24
2022-10-31T12:14:03.715Z,71.88
2022-10-31T12:16:54.262Z,73.10
2022-10-31T12:19:20.804Z,75.45
2022-10-31T12:22:16.100Z,75.27
2022-10-31T12:25:14.018Z,74.48
2022-10-31T12:28:03.943Z,75.86
2022-10-31T12:30:39.598Z,74.73
2022-10-31T12:33:24.198Z,74.13
2022-10-31T12:36:12.488Z,73.64
2022-10-31T12:38:56.912Z,74.10
2022-10-31T12:42:01.919Z,73.53
2022-10-31T12:44:52.068Z,76.26
2022-10-31T12:47:33.601Z,74.19
2022-10-31T12:50:12.818Z,74.36
2022-10-31T12:52:42.228Z,75.05
2022-10-31T12:55:27.491Z,76.20
2022-10-31T12:58:04.302Z,75.81
2022-10-31T13:00:34.922Z,76.73
2022-10-31T13:03:24.518Z,79.04
2022-10-31T13:05:58.224Z,79.33
2022-10-31T13:08:36.107Z,77.03
2022-10-31T13:14:57.330Z,74.37
2022-10-31T13:18:13.717Z,76.34
2022-10-31T13:20:44.379Z,74.88
2022-10-31T13:23:49.900Z,73.71
2022-10-31T13:26:21.304Z,73.48
2022-10-31T13:29:40.664Z,72.92
2022-10-31T13:32:08.208Z,74.96
2022-10-31T13:34:40.507Z,75.51
2022-10-31T13:37:37.657Z,77.18
2022-10-31T13:40:10.490Z,79.64
2022-10-31T13:43:06.013Z,80.40
2022-10-31T13:45:32.692Z,78.83
2022-10-31T13:48:02.288Z,80.41
2022-10-31T13:50:32.501Z,81.97
2022-10-31T13:53:37.296Z,79.75
2022-10-31T13:56:25.503Z,79.37
2022-10-31T13:59:20.514Z,80.51
2022-10-31T14:01:50.189Z,81.26
2022-10-31T14:04:25.194Z,78.34
2022-10-31T14:06:58.259Z,81.40
2022-10-31T14:09:29.290Z,81.81
2022-10-31T14:11:57.156Z,86.23
2022-10-31T14:14:32.040Z,85.76
2022-10-31T14:16:59.149Z,85.60
2022-10-31T14:19:27.706Z,89.02
2022-10-31T14:21:54.214Z,88.41
2022-10-31T14:24:23.349Z,90.14
2022-10-31T14:27:26.249Z,90.31
2022-10-31T14:29:52.850Z,89.62
2022-10-31T14:32:27.333Z,89.64
2022-10-31T14:34:58.789Z,90.30
2022-10-31T14:37:28.259Z,89.32
2022-10-31T14:40:20.710Z,87.58
2022-10-31T14:43:05.995Z,87.39
2022-10-31T14:46:03.722Z,85.21
2022-10-31T14:48:44.828Z,85.49
2022-10-31T14:51:22.119Z,84.18
2022-10-31T14:53:50.371Z,83.32
2022-10-31T14:56:30.189Z,83.89
2022-10-31T14:59:02.073Z,81.40
2022-10-31T15:01:37.917Z,79.87
2022-10-31T15:04:23.506Z,79.90
2022-10-31T15:06:58.803Z,78.54
2022-10-31T15:09:32.858Z,81.24
2022-10-31T15:12:01.127Z,79.79
2022-10-31T15:14:30.469Z,82.00
2022-10-31T15:16:59.545Z,83.23
2022-10-31T15:19:29.506Z,84.00
2022-10-31T15:21:58.580Z,85.19
2022-10-31T15:24:36.544Z,86.42
2022-10-31T15:27:05.273Z,86.38
2022-10-31T15:29:32.883Z,85.74
2022-10-31T15:32:19.514Z,87.11
2022-10-31T15:34:45.968Z,87.29
2022-10-31T15:37:17.364Z,88.85
2022-10-31T15:39:45.153Z,88.34
2022-10-31T15:42:25.136Z,90.49
2022-10-31T15:45:15.632Z,92.34
2022-10-31T15:47:55.761Z,92.14
2022-10-31T15:50:41.546Z,93.68
2022-10-31T15:53:19.423Z,97.82
2022-10-31T15:55:51.722Z,98.33
2022-10-31T15:58:18.911Z,98.31
2022-10-31T16:00:45.773Z,99.76
2022-10-31T16:03:15.458Z,100.00
2022-10-31T16:05:50.030Z,100.00
2022-10-31T16:08:25.283Z,100.00
2022-10-31T16:10:52.655Z,100.00
2022-10-31T16:13:25.139Z,100.00
2022-10-31T16:16:21.381Z,100.00
2022-10-31T16:18:45.784Z,100.00
2022-10-31T16:21:13.401Z,100.00
2022-10-31T16:23:46.785Z,100.00
2022-10-31T16:26:19.284Z,100.00
2022-10-31T16:29:24.297Z,100.00
2022-10-31T16:31:50.763Z,100.00
2022-10-31T16:34:26.920Z,100.00
2022-10-31T16:36:54.152Z,100.00
2022-10-31T16:39:21.075Z,100.00
2022-10-31T16:41:51.323Z,100.00
2022-10-31T16:44:26.475Z,100.00
2022-10-31T16:47:25.977Z,100.00
2022-10-31T16:49:54.942Z,100.00
2022-10-31T16:52:21.383Z,100.00
2022-10-31T16:54:47.856Z,100.00
2022-10-31T16:57:18.205Z,100.00
2022-10-31T16:59:49.289Z,100.00
2022-10-31T17:02:17.569Z,100.00
2022-10-31T17:04:44.864Z,100.00
2022-10-31T17:07:11.429Z,100.00
2022-10-31T17:09:37.951Z,100.00
2022-10-31T17:12:06.320Z,100.00
2022-10-31T17:14:34.217Z,100.00
2022-10-31T17:17:00.741Z,100.00
2022-10-31T17:19:27.256Z,100.00
2022-10-31T17:21:53.838Z,100.00
2022-10-31T17:24:20.308Z,100.00
2022-10-31T17:26:47.196Z,100.00
2022-10-31T17:29:13.750Z,100.00
2022-10-31T17:31:40.253Z,100.00
2022-10-31T17:34:07.233Z,100.00
2022-10-31T17:36:34.774Z,100.00
2022-10-31T17:39:01.377Z,100.00
2022-10-31T17:41:27.896Z,100.00
2022-10-31T17:43:56.027Z,100.00
2022-10-31T17:46:22.895Z,100.00
2022-10-31T17:48:49.911Z,100.00
2022-10-31T17:51:16.611Z,100.00
2022-10-31T17:53:43.133Z,100.00
2022-10-31T17:56:10.694Z,100.00
2022-10-31T17:58:38.062Z,100.00
2022-10-31T18:01:10.661Z,100.00
2022-10-31T18:03:37.767Z,100.00
2022-10-31T18:06:04.604Z,100.00
2022-10-31T18:08:33.426Z,100.00
2022-10-31T18:11:00.673Z,100.00
2022-10-31T18:13:28.271Z,100.00
2022-10-31T18:15:54.959Z,100.00
2022-10-31T18:18:22.052Z,100.00
2022-10-31T18:20:48.692Z,100.00
2022-10-31T18:23:15.170Z,100.00
2022-10-31T18:25:43.402Z,100.00
2022-10-31T18:28:10.548Z,100.00
2022-10-31T18:30:41.184Z,100.00
2022-10-31T18:33:08.853Z,100.00
2022-10-31T18:35:39.826Z,100.00
2022-10-31T18:38:07.253Z,100.00
2022-10-31T18:40:35.731Z,100.00
2022-10-31T18:43:02.933Z,100.00
2022-10-31T18:45:45.347Z,100.00
2022-10-31T18:48:14.812Z,100.00
2022-10-31T18:50:41.853Z,100.00
2022-10-31T18:53:08.462Z,100.00
2022-10-31T18:55:39.397Z,100.00
2022-10-31T18:58:06.400Z,100.00
2022-10-31T19:00:32.853Z,100.00
2022-10-31T19:02:59.590Z,100.00
2022-10-31T19:05:26.353Z,100.00
2022-10-31T19:07:52.834Z,100.00
2022-10-31T19:10:19.327Z,100.00
2022-10-31T19:12:45.750Z,100.00
2022-10-31T19:15:12.366Z,100.00
2022-10-31T19:17:38.852Z,100.00
2022-10-31T19:20:05.816Z,100.00
2022-10-31T19:22:32.305Z,100.00
2022-10-31T19:24:58.772Z,100.00
2022-10-31T19:27:27.974Z,100.00
2022-10-31T19:29:54.538Z,100.00
2022-10-31T19:32:21.111Z,100.00
2022-10-31T19:34:47.567Z,100.00
2022-10-31T19:37:14.347Z,100.00
2022-10-31T19:39:44.131Z,100.00
2022-10-31T19:42:11.013Z,100.00
2022-10-31T19:44:37.570Z,100.00
2022-10-31T19:47:04.097Z,100.00
2022-10-31T19:49:30.681Z,100.00
2022-10-31T19:51:57.271Z,100.00
2022-10-31T19:54:23.760Z,100.00
2022-10-31T19:56:50.230Z,100.00
2022-10-31T19:59:16.749Z,100.00
2022-10-31T20:01:43.380Z,100.00
2022-10-31T20:04:09.974Z,100.00
2022-10-31T20:06:39.336Z,100.00
2022-10-31T20:09:08.659Z,100.00
2022-10-31T20:11:37.342Z,100.00
2022-10-31T20:14:03.980Z,100.00
2022-10-31T20:16:30.613Z,100.00
2022-10-31T20:18:59.398Z,100.00
2022-10-31T20:21:28.514Z,100.00
2022-10-31T20:24:03.615Z,100.00
2022-10-31T20:26:31.489Z,100.00
2022-10-31T20:28:59.151Z,100.00
2022-10-31T20:31:28.442Z,100.00
2022-10-31T20:33:55.906Z,100.00
2022-10-31T20:36:23.327Z,100.00
2022-10-31T20:38:51.372Z,100.00
2022-10-31T20:41:18.343Z,100.00
2022-10-31T20:43:45.336Z,100.00
2022-10-31T20:46:23.992Z,100.00
2022-10-31T20:48:51.839Z,100.00
2022-10-31T20:51:21.476Z,100.00
2022-10-31T20:53:52.704Z,100.00
2022-10-31T20:56:21.637Z,100.00
2022-10-31T20:58:48.783Z,100.00
2022-10-31T21:01:18.433Z,100.00
2022-10-31T21:03:45.502Z,100.00
2022-10-31T21:06:13.019Z,100.00
2022-10-31T21:08:40.207Z,100.00
2022-10-31T21:11:12.320Z,100.00
2022-10-31T21:13:42.162Z,100.00
2022-10-31T21:16:12.229Z,100.00
2022-10-31T21:18:40.355Z,100.00
2022-10-31T21:21:16.517Z,100.00
2022-10-31T21:23:43.975Z,100.00
2022-10-31T21:26:17.325Z,100.00
2022-10-31T21:28:44.039Z,100.00
2022-10-31T21:31:13.808Z,100.00
2022-10-31T21:33:40.568Z,100.00
2022-10-31T21:36:07.671Z,100.00
2022-10-31T21:38:34.655Z,100.00
2022-10-31T21:41:09.645Z,100.00
2022-10-31T21:43:38.049Z,100.00
2022-10-31T21:46:10.837Z,100.00
2022-10-31T21:48:42.837Z,100.00
2022-10-31T21:51:15.453Z,100.00
2022-10-31T21:54:01.487Z,100.00
2022-10-31T21:56:28.280Z,100.00
2022-10-31T21:58:55.459Z,100.00
2022-10-31T22:01:24.411Z,100.00
2022-10-31T22:03:51.382Z,100.00
2022-10-31T22:06:18.224Z,100.00
2022-10-31T22:08:44.843Z,100.00
2022-10-31T22:11:14.311Z,100.00
2022-10-31T22:13:42.459Z,100.00
2022-10-31T22:16:14.853Z,100.00
2022-10-31T22:18:42.315Z,100.00
2022-10-31T22:21:11.940Z,100.00
2022-10-31T22:23:38.922Z,100.00
2022-10-31T22:26:07.891Z,100.00
2022-10-31T22:28:35.565Z,100.00
2022-10-31T22:31:06.018Z,100.00
2022-10-31T22:33:33.009Z,100.00
2022-10-31T22:36:05.510Z,100.00
2022-10-31T22:38:39.983Z,100.00
2022-10-31T22:41:08.203Z,100.00
2022-10-31T22:43:35.359Z,100.00
2022-10-31T22:46:04.814Z,100.00
2022-10-31T22:48:34.768Z,100.00
2022-10-31T22:51:12.206Z,100.00
2022-10-31T22:53:39.380Z,100.00
2022-10-31T22:56:07.690Z,100.00
2022-10-31T22:58:34.591Z,100.00
2022-10-31T23:01:07.104Z,100.00
2022-10-31T23:03:34.066Z,100.00
2022-10-31T23:06:02.343Z,100.00
2022-10-31T23:08:30.156Z,100.00
2022-10-31T23:10:56.978Z,100.00
2022-10-31T23:13:42.041Z,100.00
2022-10-31T23:16:10.316Z,100.00
2022-10-31T23:18:49.668Z,100.00
2022-10-31T23:21:37.416Z,100.00
2022-10-31T23:24:04.329Z,100.00
2022-10-31T23:26:49.220Z,100.00
2022-10-31T23:29:15.723Z,100.00
2022-10-31T23:31:42.171Z,100.00
2022-10-31T23:34:08.730Z,100.00
2022-10-31T23:36:35.218Z,100.00
2022-10-31T23:39:01.688Z,100.00
2022-10-31T23:41:28.131Z,100.00
2022-10-31T23:43:55.016Z,100.00
2022-10-31T23:46:21.514Z,100.00
2022-10-31T23:48:49.306Z,100.00
2022-10-31T23:51:15.902Z,100.00
2022-10-31T23:53:46.185Z,100.00
2022-10-31T23:56:13.385Z,100.00
2022-10-31T23:58:40.216Z,100.00
